Time;durP1;ratioP1;P1;durP2;ratioP2;P2;SDS_P1;SDS_P2;PMS_P1;PMS_P2;Temp;Humidity;BMP_temperature;BMP_pressure;BME280_temperature;BME280_humidity;BME280_pressure;Samples;Min_cycle;Max_cycle;Signal;HPM_P1;HPM_P2
2022/08/09 00:01:30;;;;;;;7.72;2.35;;;18.00;71.60;;;;;;6166733;23;20005;-94
2022/08/09 00:03:56;;;;;;;4.72;2.05;;;18.00;71.60;;;;;;6168817;23;20009;-94
2022/08/09 00:10:10;;;;;;;8.27;2.95;;;18.00;71.70;;;;;;6194848;23;20445;-94
2022/08/09 00:12:36;;;;;;;6.18;2.40;;;18.00;72.50;;;;;;6164342;23;20009;-93
2022/08/09 00:15:01;;;;;;;8.38;2.55;;;18.10;71.70;;;;;;6190126;23;20012;-94
2022/08/09 00:17:27;;;;;;;12.88;2.58;;;18.10;71.60;;;;;;6164620;23;20033;-95
2022/08/09 00:19:53;;;;;;;4.00;1.90;;;18.00;71.80;;;;;;6166556;23;20009;-94
2022/08/09 00:22:18;;;;;;;4.65;2.05;;;17.90;72.00;;;;;;6193485;23;20058;-94
2022/08/09 00:24:44;;;;;;;3.47;2.30;;;17.90;72.10;;;;;;6168380;23;20040;-94
2022/08/09 00:27:10;;;;;;;4.10;2.00;;;17.80;72.40;;;;;;6166792;23;20092;-94
2022/08/09 00:29:36;;;;;;;9.43;2.63;;;17.80;72.30;;;;;;6166510;23;20009;-93
2022/08/09 00:32:01;;;;;;;5.22;2.13;;;17.80;72.30;;;;;;6166724;23;20087;-94
2022/08/09 00:34:27;;;;;;;2.70;1.98;;;17.80;72.40;;;;;;6190002;23;20021;-93
2022/08/09 00:36:53;;;;;;;3.63;2.30;;;17.80;72.40;;;;;;6164851;23;20013;-94
2022/08/09 00:39:18;;;;;;;5.53;2.60;;;17.80;72.60;;;;;;6167243;23;20008;-95
2022/08/09 00:41:45;;;;;;;3.42;2.50;;;17.80;72.60;;;;;;6168056;23;20008;-93
2022/08/09 00:44:33;;;;;;;5.88;2.20;;;17.70;72.70;;;;;;6189592;23;20009;-94
2022/08/09 00:46:58;;;;;;;3.25;2.10;;;17.80;72.70;;;;;;6165758;23;20012;-94
2022/08/09 00:49:24;;;;;;;7.90;2.42;;;17.80;73.30;;;;;;6190422;23;20096;-93
2022/08/09 00:51:50;;;;;;;11.05;2.65;;;17.80;72.60;;;;;;6168402;23;20009;-93
2022/08/09 00:54:16;;;;;;;4.93;2.50;;;17.80;72.70;;;;;;6192743;23;20009;-94
2022/08/09 00:56:42;;;;;;;4.55;2.58;;;17.80;72.80;;;;;;6194356;23;20005;-95
2022/08/09 00:59:07;;;;;;;4.70;2.55;;;17.70;73.00;;;;;;6167191;23;20040;-94
2022/08/09 01:01:39;;;;;;;8.82;2.13;;;17.70;73.20;;;;;;6195306;23;20434;-94
2022/08/09 01:04:18;;;;;;;5.68;2.53;;;17.60;73.20;;;;;;6169171;23;20005;-95
2022/08/09 01:07:08;;;;;;;6.07;2.58;;;17.60;73.30;;;;;;6194563;23;20005;-94
2022/08/09 01:09:37;;;;;;;5.72;2.60;;;17.60;73.60;;;;;;6166517;23;20029;-94
2022/08/09 01:12:05;;;;;;;5.05;2.40;;;17.50;73.50;;;;;;6165734;23;20063;-93
2022/08/09 01:14:43;;;;;;;3.17;2.28;;;17.60;73.60;;;;;;6190592;23;20010;-93
2022/08/09 01:17:22;;;;;;;4.43;2.33;;;17.60;73.70;;;;;;6198011;23;20032;-94
2022/08/09 01:19:57;;;;;;;4.15;2.55;;;17.50;74.10;;;;;;6191718;23;20001;-95
2022/08/09 01:23:02;;;;;;;8.20;2.22;;;17.40;74.30;;;;;;6168205;23;20005;-94
2022/08/09 01:25:59;;;;;;;5.82;2.60;;;17.40;74.60;;;;;;6169711;23;20016;-94
2022/08/09 01:28:26;;;;;;;6.93;2.33;;;17.30;74.70;;;;;;6194570;23;20009;-94
2022/08/09 01:30:56;;;;;;;5.75;2.78;;;17.30;75.10;;;;;;6169109;23;20005;-94
2022/08/09 01:33:26;;;;;;;8.67;2.60;;;17.30;75.10;;;;;;6169404;23;20020;-94
2022/08/09 01:36:11;;;;;;;10.18;2.80;;;17.20;75.20;;;;;;6194166;23;20033;-94
2022/08/09 01:38:41;;;;;;;4.80;2.47;;;17.20;75.50;;;;;;6192698;23;20012;-94
2022/08/09 01:41:12;;;;;;;3.13;2.42;;;17.10;75.70;;;;;;6196498;23;20095;-94
2022/08/09 01:43:42;;;;;;;6.47;2.35;;;17.10;76.10;;;;;;6167307;23;20031;-93
2022/08/09 01:46:10;;;;;;;5.93;2.42;;;17.00;76.10;;;;;;6165036;23;20016;-94
2022/08/09 01:48:37;;;;;;;5.70;2.20;;;17.10;76.10;;;;;;6190864;23;20005;-94
2022/08/09 01:51:03;;;;;;;5.75;2.45;;;17.10;76.70;;;;;;6166122;23;20067;-93
2022/08/09 01:53:31;;;;;;;5.10;2.45;;;17.10;76.10;;;;;;6164989;23;20009;-94
2022/08/09 01:55:58;;;;;;;5.15;2.50;;;17.10;76.10;;;;;;6165493;23;20016;-93
2022/08/09 01:58:26;;;;;;;4.40;2.42;;;17.10;76.10;;;;;;6165408;23;20477;-94
2022/08/09 02:00:55;;;;;;;5.75;2.80;;;17.00;76.10;;;;;;6165111;23;20037;-94
2022/08/09 02:03:22;;;;;;;7.53;2.95;;;17.00;76.10;;;;;;6165883;23;20005;-93
2022/08/09 02:05:50;;;;;;;5.40;2.58;;;17.00;76.60;;;;;;6189493;23;20009;-93
2022/08/09 02:08:19;;;;;;;3.78;2.47;;;17.00;76.50;;;;;;6165267;23;20377;-94
2022/08/09 02:10:48;;;;;;;5.72;2.80;;;17.10;76.40;;;;;;6190051;23;20009;-95
2022/08/09 02:13:15;;;;;;;9.02;2.95;;;17.00;76.70;;;;;;6165651;23;20001;-93
2022/08/09 02:15:48;;;;;;;6.25;2.25;;;16.90;76.90;;;;;;6166836;23;20008;-94
2022/08/09 02:18:18;;;;;;;2.95;2.13;;;16.90;77.10;;;;;;6165780;23;20497;-94
2022/08/09 02:20:47;;;;;;;3.33;2.10;;;16.90;77.20;;;;;;6165755;23;20536;-94
2022/08/09 02:23:18;;;;;;;6.57;2.50;;;16.90;77.20;;;;;;6167482;23;20001;-94
2022/08/09 02:25:46;;;;;;;10.65;2.53;;;16.80;77.50;;;;;;6175395;23;20005;-94
2022/08/09 02:28:24;;;;;;;4.47;2.35;;;16.80;77.90;;;;;;6165661;23;20036;-93
2022/08/09 02:30:57;;;;;;;8.05;2.45;;;16.70;77.70;;;;;;6193673;23;20013;-93
2022/08/09 02:37:54;;;;;;;3.40;2.67;;;16.70;78.20;;;;;;6190617;23;20101;-93
2022/08/09 02:44:14;;;;;;;5.70;2.75;;;16.50;78.70;;;;;;6196380;23;20024;-92
2022/08/09 02:46:42;;;;;;;11.05;2.47;;;16.40;79.30;;;;;;6167089;23;20028;-94
2022/08/09 02:49:13;;;;;;;8.23;2.92;;;16.40;79.40;;;;;;6169379;23;20032;-93
2022/08/09 02:51:42;;;;;;;7.28;2.40;;;16.40;79.70;;;;;;6168004;23;20444;-93
2022/08/09 02:54:12;;;;;;;8.05;2.90;;;16.30;79.80;;;;;;6167905;23;20016;-94
2022/08/09 02:56:41;;;;;;;11.00;2.67;;;16.30;80.00;;;;;;6166874;23;20009;-93
2022/08/09 02:59:09;;;;;;;6.70;2.65;;;16.20;80.50;;;;;;6166153;23;20033;-93
2022/08/09 03:01:36;;;;;;;6.65;2.65;;;16.30;80.80;;;;;;6164158;23;20035;-94
2022/08/09 03:04:04;;;;;;;6.28;2.55;;;16.30;80.60;;;;;;6163900;23;20001;-94
2022/08/09 03:06:31;;;;;;;3.35;2.70;;;16.20;80.70;;;;;;6164814;23;20478;-93
2022/08/09 03:08:59;;;;;;;11.65;2.97;;;16.10;80.90;;;;;;6164279;23;20009;-94
2022/08/09 03:11:25;;;;;;;5.97;2.72;;;16.10;81.10;;;;;;6167503;23;20087;-94
2022/08/09 03:13:52;;;;;;;4.20;2.75;;;16.20;81.30;;;;;;6166165;23;20005;-93
2022/08/09 03:16:23;;;;;;;4.05;2.60;;;16.10;82.10;;;;;;6164214;23;20009;-95
2022/08/09 03:18:51;;;;;;;4.85;2.53;;;16.20;81.40;;;;;;6163562;23;20040;-95
2022/08/09 03:21:21;;;;;;;3.58;2.60;;;16.10;81.60;;;;;;6166522;23;20009;-94
2022/08/09 03:23:47;;;;;;;7.63;2.42;;;16.00;82.10;;;;;;6163247;23;20461;-94
2022/08/09 03:26:19;;;;;;;8.45;2.50;;;16.10;82.10;;;;;;6163985;23;20377;-95
2022/08/09 03:28:46;;;;;;;;;;;16.00;82.30;;;;;;6165186;23;20069;-94
2022/08/09 03:31:12;;;;;;;6.20;3.20;;;16.00;82.50;;;;;;6140809;23;19908;-94
2022/08/09 03:33:39;;;;;;;4.43;2.72;;;15.90;82.70;;;;;;6164334;23;20055;-94
2022/08/09 03:36:06;;;;;;;11.23;2.53;;;15.90;83.00;;;;;;6166581;23;20016;-94
2022/08/09 03:38:33;;;;;;;8.10;2.58;;;15.90;83.40;;;;;;6165846;23;20005;-94
2022/08/09 03:41:27;;;;;;;3.95;2.40;;;15.80;83.60;;;;;;6165053;23;20430;-94
2022/08/09 03:43:53;;;;;;;7.30;2.60;;;15.80;83.90;;;;;;6165532;23;20009;-94
2022/08/09 03:46:18;;;;;;;5.18;2.78;;;15.80;84.50;;;;;;6164491;23;20096;-94
2022/08/09 03:48:49;;;;;;;3.20;2.67;;;15.70;84.60;;;;;;6163110;23;20013;-93
2022/08/09 03:51:15;;;;;;;3.92;2.50;;;15.70;85.00;;;;;;6164074;23;20009;-94
2022/08/09 03:53:42;;;;;;;6.63;3.20;;;15.60;85.60;;;;;;6188173;23;20418;-95
2022/08/09 03:56:08;;;;;;;7.57;3.10;;;15.60;86.40;;;;;;6163657;23;20051;-94
2022/08/09 03:58:34;;;;;;;7.72;3.00;;;15.50;87.10;;;;;;6163548;23;20013;-95
2022/08/09 04:01:01;;;;;;;8.57;3.20;;;15.40;87.50;;;;;;6162517;23;20005;-93
2022/08/09 04:03:28;;;;;;;3.47;2.60;;;15.30;88.70;;;;;;6162656;23;20005;-95
2022/08/09 04:05:53;;;;;;;4.82;2.85;;;15.20;89.50;;;;;;6163722;23;20012;-95
2022/08/09 04:08:19;;;;;;;4.38;3.13;;;15.10;90.20;;;;;;6185944;23;20009;-88
2022/08/09 04:10:45;;;;;;;5.10;2.75;;;15.10;90.60;;;;;;6159598;23;20092;-88
2022/08/09 04:13:11;;;;;;;5.32;2.88;;;15.10;90.70;;;;;;6158748;23;20023;-88
2022/08/09 04:15:48;;;;;;;5.65;2.55;;;15.20;90.80;;;;;;6185676;23;20005;-88
2022/08/09 04:18:14;;;;;;;5.57;3.08;;;15.30;90.70;;;;;;6159605;23;20041;-88
2022/08/09 04:20:40;;;;;;;4.60;2.67;;;15.40;90.60;;;;;;6159507;23;20016;-89
2022/08/09 04:23:07;;;;;;;7.38;2.78;;;15.60;90.40;;;;;;6159823;23;20005;-88
2022/08/09 04:25:53;;;;;;;4.05;3.10;;;15.60;90.10;;;;;;6184627;23;20027;-88
2022/08/09 04:28:20;;;;;;;3.97;2.50;;;15.70;90.00;;;;;;6159684;23;20019;-89
2022/08/09 04:30:46;;;;;;;5.93;2.90;;;15.80;89.50;;;;;;6185011;23;20001;-88
2022/08/09 04:33:11;;;;;;;4.82;2.72;;;15.80;89.40;;;;;;6159764;23;20336;-89
2022/08/09 04:35:39;;;;;;;6.13;2.33;;;15.80;89.20;;;;;;6159710;23;20381;-89
2022/08/09 04:38:05;;;;;;;4.25;2.67;;;15.80;89.10;;;;;;6184819;23;20031;-88
2022/08/09 04:40:46;;;;;;;4.90;2.90;;;15.90;89.20;;;;;;6159604;23;20724;-88
2022/08/09 04:43:16;;;;;;;5.47;2.75;;;15.90;89.00;;;;;;6184660;23;20422;-89
2022/08/09 04:45:42;;;;;;;3.78;2.63;;;16.00;89.00;;;;;;6159918;23;20012;-89
2022/08/09 04:48:08;;;;;;;4.88;2.83;;;16.00;89.10;;;;;;6159111;23;20027;-88
2022/08/09 04:50:34;;;;;;;4.18;2.58;;;16.00;89.20;;;;;;6159652;23;20013;-89
2022/08/09 04:53:01;;;;;;;2.78;2.28;;;16.00;89.30;;;;;;6159443;23;20013;-88
2022/08/09 04:55:27;;;;;;;4.88;2.67;;;16.00;89.60;;;;;;6159419;23;20009;-89
2022/08/09 04:57:52;;;;;;;5.93;2.85;;;16.10;89.90;;;;;;6184156;23;20378;-88
2022/08/09 05:00:18;;;;;;;7.22;2.83;;;16.10;90.30;;;;;;6160455;23;20041;-89
2022/08/09 05:02:47;;;;;;;8.88;2.80;;;16.10;90.10;;;;;;6186004;23;20071;-88
2022/08/09 05:05:12;;;;;;;6.35;2.60;;;16.20;90.10;;;;;;6161183;23;20001;-87
2022/08/09 05:07:38;;;;;;;4.43;2.60;;;16.30;90.10;;;;;;6161363;23;20541;-89
2022/08/09 05:10:04;;;;;;;5.03;2.75;;;16.30;90.40;;;;;;6161189;23;20020;-88
2022/08/09 05:12:30;;;;;;;6.47;2.70;;;16.40;90.00;;;;;;6186431;23;20079;-88
2022/08/09 05:14:56;;;;;;;2.30;2.08;;;16.40;89.70;;;;;;6186063;23;20342;-88
2022/08/09 05:17:22;;;;;;;3.53;2.63;;;16.50;89.60;;;;;;6186442;23;20005;-88
2022/08/09 05:19:48;;;;;;;4.53;2.83;;;16.60;89.20;;;;;;6161228;23;20009;-88
2022/08/09 05:22:14;;;;;;;5.03;2.70;;;16.70;88.70;;;;;;6160648;23;20457;-88
2022/08/09 05:24:40;;;;;;;3.83;2.50;;;16.80;87.80;;;;;;6185464;23;20001;-87
2022/08/09 05:27:05;;;;;;;7.53;2.55;;;17.00;87.30;;;;;;6161071;23;20020;-88
2022/08/09 05:29:32;;;;;;;4.13;2.55;;;17.10;86.30;;;;;;6185798;23;20009;-88
2022/08/09 05:32:01;;;;;;;2.75;2.40;;;17.20;86.00;;;;;;6185338;23;20075;-89
2022/08/09 05:34:28;;;;;;;5.80;2.60;;;17.20;86.00;;;;;;6160757;23;20009;-89
2022/08/09 05:36:55;;;;;;;8.75;2.17;;;17.30;85.80;;;;;;6160553;23;20092;-89
2022/08/09 05:39:21;;;;;;;3.78;2.67;;;17.40;85.70;;;;;;6185627;23;20013;-88
2022/08/09 05:41:47;;;;;;;3.50;2.35;;;17.50;86.00;;;;;;6160776;23;20005;-89
2022/08/09 05:44:13;;;;;;;5.50;2.50;;;17.60;84.80;;;;;;6160183;23;20055;-89
2022/08/09 05:46:39;;;;;;;5.97;2.50;;;17.70;84.60;;;;;;6160661;23;20342;-89
2022/08/09 05:49:04;;;;;;;11.50;2.92;;;17.80;84.70;;;;;;6185498;23;20001;-87
2022/08/09 05:51:30;;;;;;;4.30;2.47;;;17.90;84.80;;;;;;6160661;23;20001;-88
2022/08/09 05:54:24;;;;;;;4.70;2.83;;;18.00;85.20;;;;;;6184989;23;20105;-88
2022/08/09 05:56:49;;;;;;;7.80;2.50;;;18.10;85.70;;;;;;6184503;23;20496;-88
2022/08/09 05:59:43;;;;;;;6.97;3.05;;;18.20;85.60;;;;;;6160386;23;20008;-88
2022/08/09 06:02:09;;;;;;;5.40;2.60;;;18.30;85.20;;;;;;6160284;23;20009;-90
2022/08/09 06:04:35;;;;;;;7.57;2.55;;;18.40;85.40;;;;;;6159763;23;20009;-89
2022/08/09 06:07:02;;;;;;;7.78;3.10;;;18.50;86.00;;;;;;6160441;23;20016;-88
2022/08/09 06:09:28;;;;;;;7.50;2.63;;;18.50;85.40;;;;;;6185162;23;20024;-88
2022/08/09 06:11:54;;;;;;;5.50;3.17;;;18.60;86.00;;;;;;6160525;23;20013;-88
2022/08/09 06:14:19;;;;;;;2.58;2.25;;;18.70;85.90;;;;;;6160830;23;20013;-89
2022/08/09 06:16:45;;;;;;;10.30;2.67;;;18.80;86.30;;;;;;6160561;23;20016;-87
2022/08/09 06:19:13;;;;;;;4.68;2.75;;;18.90;86.20;;;;;;6160635;23;20592;-89
2022/08/09 06:21:40;;;;;;;15.02;2.97;;;19.00;86.90;;;;;;6185608;23;20006;-88
2022/08/09 06:24:06;;;;;;;6.97;2.40;;;19.10;86.10;;;;;;6185103;23;20449;-89
2022/08/09 06:26:40;;;;;;;6.90;2.53;;;19.20;86.30;;;;;;6185741;23;20482;-89
2022/08/09 06:29:08;;;;;;;6.72;2.72;;;19.30;86.60;;;;;;6185027;23;20104;-88
2022/08/09 06:31:35;;;;;;;5.40;3.00;;;19.30;86.20;;;;;;6159531;23;20005;-88
2022/08/09 06:34:02;;;;;;;6.13;2.90;;;19.50;85.50;;;;;;6159855;23;20013;-88
2022/08/09 06:36:28;;;;;;;8.43;3.35;;;19.50;85.00;;;;;;6185728;23;20080;-88
2022/08/09 06:38:54;;;;;;;5.85;2.25;;;19.60;84.80;;;;;;6160179;23;20005;-88
2022/08/09 06:41:19;;;;;;;4.78;2.70;;;19.60;84.20;;;;;;6160130;23;20005;-88
2022/08/09 06:43:48;;;;;;;3.22;2.80;;;19.70;83.70;;;;;;6160019;23;20311;-89
2022/08/09 06:46:15;;;;;;;6.07;2.70;;;19.80;83.50;;;;;;6184789;23;20025;-90
2022/08/09 06:48:41;;;;;;;5.50;2.53;;;19.90;83.80;;;;;;6160284;23;20019;-89
2022/08/09 06:51:11;;;;;;;3.70;2.28;;;19.90;82.70;;;;;;6160054;23;20096;-87
2022/08/09 06:53:37;;;;;;;6.35;2.92;;;20.00;82.70;;;;;;6184577;23;20039;-88
2022/08/09 06:56:03;;;;;;;3.95;2.42;;;20.10;82.80;;;;;;6185488;23;20001;-88
2022/08/09 06:58:44;;;;;;;5.85;2.55;;;20.20;83.10;;;;;;6185229;23;20433;-89
2022/08/09 07:01:09;;;;;;;3.60;2.40;;;20.30;81.50;;;;;;6159928;23;20001;-87
2022/08/09 07:03:35;;;;;;;4.70;2.35;;;20.30;82.40;;;;;;6185942;23;20485;-88
2022/08/09 07:06:02;;;;;;;7.63;2.50;;;20.40;81.50;;;;;;6184649;23;20001;-88
2022/08/09 07:08:28;;;;;;;3.92;2.53;;;20.50;81.60;;;;;;6186143;23;20009;-88
2022/08/09 07:10:54;;;;;;;5.15;2.38;;;20.60;82.50;;;;;;6159902;23;20009;-88
2022/08/09 07:13:19;;;;;;;6.15;2.97;;;20.70;81.70;;;;;;6184435;23;20425;-88
2022/08/09 07:15:45;;;;;;;3.65;2.47;;;20.70;81.70;;;;;;6185943;23;20012;-88
2022/08/09 07:18:11;;;;;;;4.05;2.60;;;20.80;81.80;;;;;;6184512;23;20088;-87
2022/08/09 07:20:37;;;;;;;4.85;2.35;;;20.90;81.90;;;;;;6184437;23;20001;-87
2022/08/09 07:23:02;;;;;;;6.53;3.20;;;21.00;81.30;;;;;;6184262;23;20036;-88
2022/08/09 07:26:06;;;;;;;6.85;2.40;;;21.10;80.40;;;;;;6159902;23;20013;-88
2022/08/09 07:28:32;;;;;;;6.82;2.58;;;21.20;80.80;;;;;;6159777;23;20016;-88
2022/08/09 07:31:10;;;;;;;3.30;2.20;;;21.20;80.40;;;;;;6159745;23;20014;-88
2022/08/09 07:33:35;;;;;;;5.72;2.90;;;21.30;80.10;;;;;;6158993;23;20460;-89
2022/08/09 07:36:01;;;;;;;11.30;2.63;;;21.40;80.70;;;;;;6186074;23;20012;-88
2022/08/09 07:38:49;;;;;;;12.98;2.50;;;21.50;80.00;;;;;;6159145;23;20020;-87
2022/08/09 07:41:15;;;;;;;5.35;2.42;;;21.60;79.60;;;;;;6159488;23;20009;-89
2022/08/09 07:43:59;;;;;;;4.47;2.45;;;21.70;79.00;;;;;;6158992;23;20013;-88
2022/08/09 07:46:25;;;;;;;6.22;2.97;;;21.80;78.80;;;;;;6159368;23;20016;-89
2022/08/09 07:49:06;;;;;;;3.85;2.40;;;21.90;78.60;;;;;;6184010;23;20005;-88
2022/08/09 07:51:32;;;;;;;3.65;2.50;;;21.90;77.70;;;;;;6160044;23;20013;-86
2022/08/09 07:53:57;;;;;;;7.43;2.47;;;22.00;78.10;;;;;;6184115;23;20032;-89
2022/08/09 07:56:24;;;;;;;4.13;2.35;;;22.10;77.80;;;;;;6159689;23;20660;-89
2022/08/09 07:58:50;;;;;;;4.55;2.63;;;22.20;78.70;;;;;;6185885;23;20001;-87
2022/08/09 08:01:16;;;;;;;4.15;2.10;;;22.30;77.20;;;;;;6160390;23;20015;-89
2022/08/09 08:03:42;;;;;;;9.27;3.03;;;22.40;77.20;;;;;;6159790;23;20005;-88
2022/08/09 08:06:07;;;;;;;4.65;2.35;;;22.60;76.20;;;;;;6184518;23;20016;-88
2022/08/09 08:08:33;;;;;;;3.03;2.40;;;22.60;75.30;;;;;;6159972;23;20910;-89
2022/08/09 08:10:59;;;;;;;3.33;2.38;;;22.70;76.50;;;;;;6184942;23;20052;-89
2022/08/09 08:13:25;;;;;;;6.47;2.50;;;22.80;74.70;;;;;;6159245;23;20346;-89
2022/08/09 08:15:50;;;;;;;6.47;2.83;;;22.80;74.70;;;;;;6159425;23;20028;-89
2022/08/09 08:18:16;;;;;;;5.85;2.67;;;22.80;74.40;;;;;;6159513;23;20013;-88
2022/08/09 08:20:42;;;;;;;4.20;2.70;;;22.90;74.10;;;;;;6159280;23;20480;-90
2022/08/09 08:23:08;;;;;;;6.55;2.67;;;22.90;73.30;;;;;;6159363;23;20013;-89
2022/08/09 08:25:34;;;;;;;7.88;2.40;;;22.90;73.30;;;;;;6160092;23;20005;-89
2022/08/09 08:28:00;;;;;;;4.72;2.45;;;23.00;73.90;;;;;;6184563;23;20018;-89
2022/08/09 08:30:26;;;;;;;5.80;2.40;;;23.20;74.20;;;;;;6184765;23;20013;-90
2022/08/09 08:32:52;;;;;;;3.17;2.28;;;23.60;73.50;;;;;;6159187;23;20067;-87
2022/08/09 08:35:18;;;;;;;3.78;2.40;;;24.50;70.20;;;;;;6186235;23;20016;-90
2022/08/09 08:37:44;;;;;;;2.70;2.45;;;25.80;67.80;;;;;;6188186;23;20037;-90
2022/08/09 08:40:10;;;;;;;2.97;2.20;;;26.60;64.60;;;;;;6186878;23;20005;-89
2022/08/09 08:42:36;;;;;;;4.03;2.65;;;27.30;62.90;;;;;;6186469;23;20096;-88
2022/08/09 08:45:03;;;;;;;3.35;2.00;;;27.90;61.10;;;;;;6160619;23;20067;-90
2022/08/09 08:47:29;;;;;;;3.95;2.28;;;28.30;60.30;;;;;;6185680;23;20035;-91
2022/08/09 08:49:57;;;;;;;4.78;2.10;;;28.80;59.70;;;;;;6186953;23;20039;-88
2022/08/09 08:52:27;;;;;;;3.47;2.10;;;29.20;58.00;;;;;;6161493;23;20460;-90
2022/08/09 08:54:54;;;;;;;2.78;2.13;;;29.70;58.00;;;;;;6186099;23;20016;-91
2022/08/09 08:57:21;;;;;;;2.92;1.92;;;30.30;55.90;;;;;;6186527;23;20005;-90
2022/08/09 08:59:48;;;;;;;6.13;1.92;;;30.60;55.30;;;;;;6186851;23;20037;-92
2022/08/09 09:02:25;;;;;;;6.80;2.80;;;30.50;54.40;;;;;;6161553;23;20012;-91
2022/08/09 09:04:56;;;;;;;5.30;2.20;;;30.50;54.30;;;;;;6161365;23;20594;-93
2022/08/09 09:07:24;;;;;;;2.92;1.92;;;30.60;53.90;;;;;;6185906;23;20009;-90
2022/08/09 09:09:51;;;;;;;5.90;2.13;;;31.00;53.60;;;;;;6186392;23;20385;-91
2022/08/09 09:12:19;;;;;;;2.83;1.55;;;30.90;53.40;;;;;;6161235;23;20013;-90
2022/08/09 09:14:46;;;;;;;3.40;2.10;;;29.70;54.60;;;;;;6185981;23;20077;-89
2022/08/09 09:17:13;;;;;;;2.83;2.00;;;29.40;55.40;;;;;;6186188;23;20005;-90
2022/08/09 09:19:39;;;;;;;3.33;2.00;;;29.60;55.50;;;;;;6161335;23;20449;-89
2022/08/09 09:22:06;;;;;;;4.75;1.70;;;30.00;54.20;;;;;;6160391;23;20092;-91
2022/08/09 09:24:38;;;;;;;5.07;2.20;;;30.60;53.20;;;;;;6161089;23;20012;-92
2022/08/09 09:27:05;;;;;;;5.55;2.05;;;30.10;52.60;;;;;;6161393;23;20009;-92
2022/08/09 09:29:40;;;;;;;4.82;1.83;;;29.50;53.90;;;;;;6161276;23;20012;-92
2022/08/09 09:32:07;;;;;;;5.43;1.90;;;30.10;54.40;;;;;;6185788;23;20444;-90
2022/08/09 09:34:33;;;;;;;3.17;1.85;;;30.40;53.30;;;;;;6160720;23;20013;-90
2022/08/09 09:37:00;;;;;;;4.90;2.00;;;31.00;52.40;;;;;;6160793;23;20023;-90
2022/08/09 09:39:28;;;;;;;3.55;1.98;;;31.10;51.50;;;;;;6186331;23;20020;-90
2022/08/09 09:41:54;;;;;;;8.05;2.10;;;30.00;52.50;;;;;;6161053;23;20009;-90
2022/08/09 09:44:33;;;;;;;5.80;2.20;;;29.70;54.00;;;;;;6185647;23;20009;-92
2022/08/09 09:47:15;;;;;;;3.70;2.05;;;29.50;53.60;;;;;;6186874;23;20386;-90
2022/08/09 09:49:49;;;;;;;3.63;2.35;;;30.40;52.10;;;;;;6185790;23;20005;-92
2022/08/09 09:52:15;;;;;;;5.60;1.80;;;31.10;51.50;;;;;;6185639;23;20001;-91
2022/08/09 09:54:42;;;;;;;3.78;1.70;;;31.70;51.70;;;;;;6185093;23;20059;-93
2022/08/09 09:57:14;;;;;;;7.40;1.85;;;31.60;50.40;;;;;;6185000;23;20441;-93
2022/08/09 09:59:41;;;;;;;3.72;2.20;;;31.40;51.10;;;;;;6186748;23;20005;-90
2022/08/09 10:02:07;;;;;;;4.45;1.90;;;30.60;51.30;;;;;;6160554;23;20032;-92
2022/08/09 10:04:33;;;;;;;5.60;2.13;;;29.60;53.70;;;;;;6185541;23;20005;-91
2022/08/09 10:06:59;;;;;;;5.38;1.90;;;28.80;52.90;;;;;;6186258;23;20088;-91
2022/08/09 10:09:25;;;;;;;3.88;1.98;;;28.10;54.00;;;;;;6160542;23;20641;-91
2022/08/09 10:12:01;;;;;;;4.05;1.92;;;27.80;54.30;;;;;;6160408;23;20087;-90
2022/08/09 10:14:33;;;;;;;3.75;2.22;;;27.90;54.80;;;;;;6160137;23;20005;-90
2022/08/09 10:17:09;;;;;;;2.90;2.00;;;28.00;53.80;;;;;;6160013;23;20009;-90
2022/08/09 10:19:35;;;;;;;3.35;1.90;;;28.20;53.20;;;;;;6161350;23;20059;-90
2022/08/09 10:22:01;;;;;;;2.47;1.92;;;28.30;52.80;;;;;;6186327;23;20063;-92
2022/08/09 10:24:28;;;;;;;2.75;2.10;;;28.20;54.00;;;;;;6186910;23;19997;-90
2022/08/09 10:26:55;;;;;;;10.50;2.33;;;28.10;53.90;;;;;;6160212;23;20016;-91
2022/08/09 10:29:23;;;;;;;4.20;1.85;;;28.80;53.80;;;;;;6184899;23;20120;-90
2022/08/09 10:31:49;;;;;;;5.60;1.90;;;29.30;52.40;;;;;;6184676;23;20005;-92
2022/08/09 10:34:15;;;;;;;9.07;1.98;;;29.10;52.50;;;;;;6160157;23;20448;-90
2022/08/09 10:36:41;;;;;;;5.68;2.70;;;29.30;52.80;;;;;;6160382;23;20005;-92
2022/08/09 10:39:08;;;;;;;5.53;1.90;;;30.10;51.60;;;;;;6160780;23;20004;-90
2022/08/09 10:41:34;;;;;;;3.47;2.08;;;30.30;50.90;;;;;;6185305;23;20008;-90
2022/08/09 10:44:01;;;;;;;12.00;1.90;;;30.30;50.60;;;;;;6185053;23;20008;-91
2022/08/09 10:46:48;;;;;;;2.38;2.00;;;30.20;51.00;;;;;;6160496;23;20009;-92
2022/08/09 10:49:26;;;;;;;3.30;1.70;;;30.90;50.40;;;;;;6186033;23;20009;-91
2022/08/09 10:52:09;;;;;;;3.30;2.35;;;30.60;50.40;;;;;;6185288;23;20016;-92
2022/08/09 10:54:35;;;;;;;3.70;1.95;;;30.50;51.00;;;;;;6185044;23;20005;-91
2022/08/09 10:57:08;;;;;;;6.50;1.95;;;31.20;50.50;;;;;;6160105;23;20036;-92
2022/08/09 10:59:36;;;;;;;5.15;2.03;;;31.00;50.50;;;;;;6160505;23;20009;-91
2022/08/09 11:02:37;;;;;;;3.45;1.98;;;30.50;50.30;;;;;;6160558;23;20509;-90
2022/08/09 11:05:13;;;;;;;;;;;30.30;50.80;;;;;;6160887;23;20140;-91
2022/08/09 11:07:39;;;;;;;7.22;1.90;;;30.30;50.50;;;;;;6185778;23;20293;-91
2022/08/09 11:10:42;;;;;;;9.13;2.20;;;30.30;50.00;;;;;;6160274;23;20032;-93
2022/08/09 11:13:15;;;;;;;6.35;1.80;;;30.70;49.60;;;;;;6159780;23;20012;-93
2022/08/09 11:15:41;;;;;;;1.85;1.50;;;30.50;49.80;;;;;;6160196;23;20013;-91
2022/08/09 11:18:11;;;;;;;4.55;1.95;;;30.50;49.10;;;;;;6184950;23;20013;-91
2022/08/09 11:20:48;;;;;;;2.70;1.80;;;30.50;49.00;;;;;;6160469;23;20012;-92
2022/08/09 11:23:14;;;;;;;6.28;1.73;;;30.40;49.30;;;;;;6160319;23;20024;-91
2022/08/09 11:25:46;;;;;;;6.28;1.60;;;31.00;49.00;;;;;;6185191;23;20012;-92
2022/08/09 11:28:27;;;;;;;3.53;1.45;;;31.50;47.10;;;;;;6185934;23;20004;-91
2022/08/09 11:30:53;;;;;;;7.25;1.70;;;30.70;48.60;;;;;;6160521;23;20434;-90
2022/08/09 11:33:19;;;;;;;1.77;1.60;;;30.60;48.90;;;;;;6160869;23;20013;-89
2022/08/09 11:35:57;;;;;;;2.38;1.67;;;30.40;48.60;;;;;;6186715;23;20011;-89
2022/08/09 11:38:25;;;;;;;1.85;1.58;;;30.30;47.30;;;;;;6159859;23;20016;-92
2022/08/09 11:40:51;;;;;;;4.82;1.48;;;30.90;48.60;;;;;;6184369;23;20337;-89
2022/08/09 11:43:39;;;;;;;5.75;1.50;;;30.90;46.70;;;;;;6160304;23;20009;-93
2022/08/09 11:46:06;;;;;;;4.35;1.20;;;30.90;47.40;;;;;;6146214;23;20009;-93
2022/08/09 11:48:47;;;;;;;1.05;0.98;;;31.20;46.90;;;;;;6185688;23;20013;-90
2022/08/09 11:51:13;;;;;;;2.47;1.38;;;30.60;46.50;;;;;;6160529;23;20020;-93
2022/08/09 11:53:40;;;;;;;3.70;1.80;;;30.60;47.50;;;;;;6159861;23;20013;-89
2022/08/09 11:56:19;;;;;;;9.02;1.60;;;30.70;46.90;;;;;;6160347;23;20341;-90
2022/08/09 11:58:48;;;;;;;5.25;1.42;;;31.50;46.70;;;;;;6185213;23;20013;-91
2022/08/09 12:04:40;;;;;;;2.35;1.48;;;31.80;45.50;;;;;;6184713;23;20060;-90
2022/08/09 12:07:05;;;;;;;5.78;1.42;;;31.70;45.10;;;;;;6185048;23;20632;-91
2022/08/09 12:09:34;;;;;;;5.57;1.83;;;31.40;45.20;;;;;;6159534;23;20302;-90
2022/08/09 12:12:07;;;;;;;4.95;1.92;;;31.50;45.20;;;;;;6186392;23;20039;-90
2022/08/09 12:14:34;;;;;;;6.50;1.42;;;31.40;45.70;;;;;;6160293;23;20418;-90
2022/08/09 12:17:04;;;;;;;9.00;2.58;;;31.00;45.80;;;;;;6159840;23;20009;-90
2022/08/09 12:19:31;;;;;;;4.00;1.30;;;30.70;46.20;;;;;;6185263;23;20005;-90
2022/08/09 12:22:02;;;;;;;3.42;1.20;;;30.20;46.00;;;;;;6184794;23;20005;-89
2022/08/09 12:24:28;;;;;;;1.30;1.20;;;30.00;45.90;;;;;;6184763;23;20056;-91
2022/08/09 12:26:56;;;;;;;4.57;1.42;;;29.60;45.80;;;;;;6159562;23;20013;-89
2022/08/09 12:29:24;;;;;;;2.03;1.40;;;29.40;46.50;;;;;;6160088;23;20021;-91
2022/08/09 12:32:01;;;;;;;3.05;1.60;;;29.40;47.10;;;;;;6160166;23;20500;-90
2022/08/09 12:34:38;;;;;;;2.35;1.75;;;29.30;47.80;;;;;;6159757;23;20059;-90
2022/08/09 12:37:04;;;;;;;3.95;2.20;;;29.30;48.70;;;;;;6160260;23;20088;-91
2022/08/09 12:39:30;;;;;;;2.95;1.45;;;29.40;48.50;;;;;;6186295;23;20771;-90
2022/08/09 12:42:13;;;;;;;3.53;1.52;;;29.60;47.70;;;;;;6185240;23;20013;-90
2022/08/09 12:44:40;;;;;;;4.53;1.80;;;29.70;47.70;;;;;;6184480;23;20017;-89
2022/08/09 12:47:06;;;;;;;8.02;2.05;;;29.60;48.00;;;;;;6184118;23;20017;-89
2022/08/09 12:49:33;;;;;;;5.18;1.77;;;29.80;47.20;;;;;;6159731;23;20108;-89
2022/08/09 12:51:59;;;;;;;4.30;1.70;;;30.20;46.50;;;;;;6184422;23;20071;-90
2022/08/09 12:54:25;;;;;;;2.28;1.75;;;30.50;46.20;;;;;;6159338;23;20426;-90
2022/08/09 12:56:51;;;;;;;3.70;1.58;;;30.90;46.40;;;;;;6185007;23;20005;-90
2022/08/09 12:59:19;;;;;;;2.20;1.58;;;31.10;45.70;;;;;;6169646;23;20020;-89
2022/08/09 13:01:57;;;;;;;2.17;1.83;;;31.50;44.80;;;;;;6184597;23;20001;-90
2022/08/09 13:04:23;;;;;;;1.60;1.35;;;31.30;44.90;;;;;;6184274;23;20433;-91
2022/08/09 13:06:49;;;;;;;2.22;1.42;;;31.40;45.00;;;;;;6184437;23;20012;-89
2022/08/09 13:09:35;;;;;;;1.52;1.25;;;31.50;44.20;;;;;;6159369;23;20005;-90
2022/08/09 13:12:03;;;;;;;5.53;1.60;;;31.30;44.90;;;;;;6159612;23;20016;-88
2022/08/09 13:14:30;;;;;;;3.13;1.60;;;31.60;44.50;;;;;;6185905;23;20012;-89